sensor_id;sensor_type;location;lat;lon;timestamp;temperature;humidity
20698;DHT22;10508;50.956;4.640;2023-03-13T00:02:10;11.20;99.90
20698;DHT22;10508;50.956;4.640;2023-03-13T00:04:35;11.20;99.90
20698;DHT22;10508;50.956;4.640;2023-03-13T00:07:01;11.40;99.90
20698;DHT22;10508;50.956;4.640;2023-03-13T00:09:26;11.30;99.90
20698;DHT22;10508;50.956;4.640;2023-03-13T00:11:52;11.20;99.90
20698;DHT22;10508;50.956;4.640;2023-03-13T00:14:18;11.90;99.90
20698;DHT22;10508;50.956;4.640;2023-03-13T00:16:43;11.20;99.90
20698;DHT22;10508;50.956;4.640;2023-03-13T00:19:09;11.30;99.90
20698;DHT22;10508;50.956;4.640;2023-03-13T00:21:35;10.60;99.90
20698;DHT22;10508;50.956;4.640;2023-03-13T00:24:02;11.20;99.90
20698;DHT22;10508;50.956;4.640;2023-03-13T00:26:29;11.20;99.90
20698;DHT22;10508;50.956;4.640;2023-03-13T00:28:55;11.20;99.90
20698;DHT22;10508;50.956;4.640;2023-03-13T00:31:26;11.40;99.90
20698;DHT22;10508;50.956;4.640;2023-03-13T00:33:56;11.30;99.90
20698;DHT22;10508;50.956;4.640;2023-03-13T00:36:24;11.30;99.90
20698;DHT22;10508;50.956;4.640;2023-03-13T00:38:51;11.40;99.90
20698;DHT22;10508;50.956;4.640;2023-03-13T00:41:19;11.50;99.90
20698;DHT22;10508;50.956;4.640;2023-03-13T00:43:46;11.50;99.90
20698;DHT22;10508;50.956;4.640;2023-03-13T00:46:15;11.50;99.90
20698;DHT22;10508;50.956;4.640;2023-03-13T00:48:41;11.40;99.90
20698;DHT22;10508;50.956;4.640;2023-03-13T00:51:07;11.40;99.90
20698;DHT22;10508;50.956;4.640;2023-03-13T00:53:33;11.40;99.90
20698;DHT22;10508;50.956;4.640;2023-03-13T00:56:03;11.50;99.90
20698;DHT22;10508;50.956;4.640;2023-03-13T00:58:30;11.50;99.90
20698;DHT22;10508;50.956;4.640;2023-03-13T01:01:15;11.40;99.90
20698;DHT22;10508;50.956;4.640;2023-03-13T01:03:44;11.50;99.90
20698;DHT22;10508;50.956;4.640;2023-03-13T01:06:12;11.60;99.90
20698;DHT22;10508;50.956;4.640;2023-03-13T01:08:38;11.40;99.90
20698;DHT22;10508;50.956;4.640;2023-03-13T01:11:07;11.40;99.90
20698;DHT22;10508;50.956;4.640;2023-03-13T01:13:33;11.40;99.90
20698;DHT22;10508;50.956;4.640;2023-03-13T01:16:26;11.40;99.90
20698;DHT22;10508;50.956;4.640;2023-03-13T01:18:54;11.50;99.90
20698;DHT22;10508;50.956;4.640;2023-03-13T01:21:21;11.50;99.90
20698;DHT22;10508;50.956;4.640;2023-03-13T01:23:48;11.70;99.90
20698;DHT22;10508;50.956;4.640;2023-03-13T01:26:15;11.50;99.90
20698;DHT22;10508;50.956;4.640;2023-03-13T01:28:40;11.50;99.90
20698;DHT22;10508;50.956;4.640;2023-03-13T01:31:11;11.50;99.90
20698;DHT22;10508;50.956;4.640;2023-03-13T01:33:37;11.50;99.90
20698;DHT22;10508;50.956;4.640;2023-03-13T01:36:03;11.60;99.90
20698;DHT22;10508;50.956;4.640;2023-03-13T01:38:29;11.60;99.90
20698;DHT22;10508;50.956;4.640;2023-03-13T01:40:55;11.60;99.90
20698;DHT22;10508;50.956;4.640;2023-03-13T01:43:32;12.80;99.90
20698;DHT22;10508;50.956;4.640;2023-03-13T01:54:45;11.70;99.90
20698;DHT22;10508;50.956;4.640;2023-03-13T01:59:32;11.80;99.90
20698;DHT22;10508;50.956;4.640;2023-03-13T02:02:01;11.80;99.90
20698;DHT22;10508;50.956;4.640;2023-03-13T02:04:30;11.80;99.90
20698;DHT22;10508;50.956;4.640;2023-03-13T02:07:03;11.80;99.90
20698;DHT22;10508;50.956;4.640;2023-03-13T02:09:31;11.90;99.90
20698;DHT22;10508;50.956;4.640;2023-03-13T02:12:10;11.80;99.90
20698;DHT22;10508;50.956;4.640;2023-03-13T02:14:40;11.80;99.90
20698;DHT22;10508;50.956;4.640;2023-03-13T02:17:08;11.80;99.90
20698;DHT22;10508;50.956;4.640;2023-03-13T02:19:39;11.90;99.90
20698;DHT22;10508;50.956;4.640;2023-03-13T02:22:12;11.90;99.90
20698;DHT22;10508;50.956;4.640;2023-03-13T02:24:53;11.90;99.90
20698;DHT22;10508;50.956;4.640;2023-03-13T02:27:21;12.40;99.90
20698;DHT22;10508;50.956;4.640;2023-03-13T02:29:47;12.00;99.90
20698;DHT22;10508;50.956;4.640;2023-03-13T02:32:13;12.10;99.90
20698;DHT22;10508;50.956;4.640;2023-03-13T02:34:40;11.90;99.90
20698;DHT22;10508;50.956;4.640;2023-03-13T02:37:08;12.00;99.90
20698;DHT22;10508;50.956;4.640;2023-03-13T02:39:35;12.10;99.90
20698;DHT22;10508;50.956;4.640;2023-03-13T02:42:03;12.10;99.90
20698;DHT22;10508;50.956;4.640;2023-03-13T02:44:29;12.10;99.90
20698;DHT22;10508;50.956;4.640;2023-03-13T02:46:55;12.20;99.90
20698;DHT22;10508;50.956;4.640;2023-03-13T02:49:30;12.20;99.90
20698;DHT22;10508;50.956;4.640;2023-03-13T02:51:58;12.20;99.90
20698;DHT22;10508;50.956;4.640;2023-03-13T02:54:34;12.30;99.90
20698;DHT22;10508;50.956;4.640;2023-03-13T02:57:03;12.30;99.90
20698;DHT22;10508;50.956;4.640;2023-03-13T02:59:29;12.30;99.90
20698;DHT22;10508;50.956;4.640;2023-03-13T03:01:55;12.40;99.90
20698;DHT22;10508;50.956;4.640;2023-03-13T03:04:22;12.30;99.90
20698;DHT22;10508;50.956;4.640;2023-03-13T03:06:48;12.40;99.90
20698;DHT22;10508;50.956;4.640;2023-03-13T03:09:14;12.50;99.90
20698;DHT22;10508;50.956;4.640;2023-03-13T03:11:40;12.40;99.90
20698;DHT22;10508;50.956;4.640;2023-03-13T03:14:06;12.50;99.90
20698;DHT22;10508;50.956;4.640;2023-03-13T03:16:32;12.50;99.90
20698;DHT22;10508;50.956;4.640;2023-03-13T03:18:57;12.60;99.90
20698;DHT22;10508;50.956;4.640;2023-03-13T03:21:23;12.60;99.90
20698;DHT22;10508;50.956;4.640;2023-03-13T03:23:49;12.60;99.90
20698;DHT22;10508;50.956;4.640;2023-03-13T03:26:15;12.70;99.90
20698;DHT22;10508;50.956;4.640;2023-03-13T03:28:41;12.70;99.90
20698;DHT22;10508;50.956;4.640;2023-03-13T03:31:09;12.80;99.90
20698;DHT22;10508;50.956;4.640;2023-03-13T03:33:36;12.70;99.90
20698;DHT22;10508;50.956;4.640;2023-03-13T03:36:03;12.80;99.90
20698;DHT22;10508;50.956;4.640;2023-03-13T03:38:29;12.80;99.90
20698;DHT22;10508;50.956;4.640;2023-03-13T03:40:55;12.70;99.90
20698;DHT22;10508;50.956;4.640;2023-03-13T03:43:21;12.80;99.90
20698;DHT22;10508;50.956;4.640;2023-03-13T03:45:46;12.80;99.90
20698;DHT22;10508;50.956;4.640;2023-03-13T03:48:12;12.80;99.90
20698;DHT22;10508;50.956;4.640;2023-03-13T03:50:37;13.00;99.90
20698;DHT22;10508;50.956;4.640;2023-03-13T03:53:03;12.90;99.90
20698;DHT22;10508;50.956;4.640;2023-03-13T03:55:29;11.60;99.90
20698;DHT22;10508;50.956;4.640;2023-03-13T03:57:54;12.90;99.90
20698;DHT22;10508;50.956;4.640;2023-03-13T04:00:20;13.00;99.90
20698;DHT22;10508;50.956;4.640;2023-03-13T04:02:46;13.00;99.90
20698;DHT22;10508;50.956;4.640;2023-03-13T04:05:12;13.10;99.90
20698;DHT22;10508;50.956;4.640;2023-03-13T04:07:38;13.20;99.90
20698;DHT22;10508;50.956;4.640;2023-03-13T04:10:04;13.00;99.90
20698;DHT22;10508;50.956;4.640;2023-03-13T04:12:29;13.10;99.90
20698;DHT22;10508;50.956;4.640;2023-03-13T04:14:55;13.00;99.90
20698;DHT22;10508;50.956;4.640;2023-03-13T04:17:21;13.10;99.90
20698;DHT22;10508;50.956;4.640;2023-03-13T04:19:46;13.10;99.90
20698;DHT22;10508;50.956;4.640;2023-03-13T04:22:12;13.10;99.90
20698;DHT22;10508;50.956;4.640;2023-03-13T04:24:37;13.10;99.90
20698;DHT22;10508;50.956;4.640;2023-03-13T04:27:03;13.10;99.90
20698;DHT22;10508;50.956;4.640;2023-03-13T04:29:31;13.20;99.90
20698;DHT22;10508;50.956;4.640;2023-03-13T04:31:57;13.20;99.90
20698;DHT22;10508;50.956;4.640;2023-03-13T04:34:23;13.20;99.90
20698;DHT22;10508;50.956;4.640;2023-03-13T04:36:49;13.20;99.90
20698;DHT22;10508;50.956;4.640;2023-03-13T04:39:14;13.20;99.90
20698;DHT22;10508;50.956;4.640;2023-03-13T04:41:40;13.10;99.90
20698;DHT22;10508;50.956;4.640;2023-03-13T04:44:06;13.10;99.90
20698;DHT22;10508;50.956;4.640;2023-03-13T04:46:31;13.10;99.90
20698;DHT22;10508;50.956;4.640;2023-03-13T04:48:57;13.20;99.90
20698;DHT22;10508;50.956;4.640;2023-03-13T04:51:23;13.20;99.90
20698;DHT22;10508;50.956;4.640;2023-03-13T04:53:49;13.20;99.90
20698;DHT22;10508;50.956;4.640;2023-03-13T04:56:22;13.20;99.90
20698;DHT22;10508;50.956;4.640;2023-03-13T04:58:48;13.20;99.90
20698;DHT22;10508;50.956;4.640;2023-03-13T05:01:14;13.20;99.90
20698;DHT22;10508;50.956;4.640;2023-03-13T05:03:40;13.30;99.90
20698;DHT22;10508;50.956;4.640;2023-03-13T05:06:05;13.40;99.90
20698;DHT22;10508;50.956;4.640;2023-03-13T05:08:31;13.40;99.90
20698;DHT22;10508;50.956;4.640;2023-03-13T05:10:57;13.30;99.90
20698;DHT22;10508;50.956;4.640;2023-03-13T05:13:23;13.30;99.90
20698;DHT22;10508;50.956;4.640;2023-03-13T05:15:48;13.20;99.90
20698;DHT22;10508;50.956;4.640;2023-03-13T05:18:14;13.20;99.90
20698;DHT22;10508;50.956;4.640;2023-03-13T05:20:39;13.20;99.90
20698;DHT22;10508;50.956;4.640;2023-03-13T05:23:05;13.20;99.90
20698;DHT22;10508;50.956;4.640;2023-03-13T05:25:31;13.30;99.90
20698;DHT22;10508;50.956;4.640;2023-03-13T05:27:57;13.20;99.90
20698;DHT22;10508;50.956;4.640;2023-03-13T05:30:22;13.30;99.90
20698;DHT22;10508;50.956;4.640;2023-03-13T05:32:48;13.20;99.90
20698;DHT22;10508;50.956;4.640;2023-03-13T05:35:14;13.30;99.90
20698;DHT22;10508;50.956;4.640;2023-03-13T05:37:39;13.30;99.90
20698;DHT22;10508;50.956;4.640;2023-03-13T05:40:06;13.30;99.90
20698;DHT22;10508;50.956;4.640;2023-03-13T05:42:31;13.30;99.90
20698;DHT22;10508;50.956;4.640;2023-03-13T05:44:57;13.30;99.90
20698;DHT22;10508;50.956;4.640;2023-03-13T05:47:23;13.40;99.90
20698;DHT22;10508;50.956;4.640;2023-03-13T05:49:48;13.40;99.90
20698;DHT22;10508;50.956;4.640;2023-03-13T05:52:14;13.40;99.90
20698;DHT22;10508;50.956;4.640;2023-03-13T05:54:39;13.50;99.90
20698;DHT22;10508;50.956;4.640;2023-03-13T05:57:05;13.40;99.90
20698;DHT22;10508;50.956;4.640;2023-03-13T05:59:31;13.40;99.90
20698;DHT22;10508;50.956;4.640;2023-03-13T06:01:56;13.40;99.90
20698;DHT22;10508;50.956;4.640;2023-03-13T06:04:22;13.50;99.90
20698;DHT22;10508;50.956;4.640;2023-03-13T06:06:47;13.40;99.90
20698;DHT22;10508;50.956;4.640;2023-03-13T06:09:13;13.50;99.90
20698;DHT22;10508;50.956;4.640;2023-03-13T06:11:39;13.50;99.90
20698;DHT22;10508;50.956;4.640;2023-03-13T06:14:06;13.40;99.90
20698;DHT22;10508;50.956;4.640;2023-03-13T06:16:31;13.50;99.90
20698;DHT22;10508;50.956;4.640;2023-03-13T06:18:57;13.40;99.90
20698;DHT22;10508;50.956;4.640;2023-03-13T06:21:23;13.50;99.90
20698;DHT22;10508;50.956;4.640;2023-03-13T06:23:48;13.50;99.90
20698;DHT22;10508;50.956;4.640;2023-03-13T06:26:14;13.50;99.90
20698;DHT22;10508;50.956;4.640;2023-03-13T06:28:40;13.50;99.90
20698;DHT22;10508;50.956;4.640;2023-03-13T06:31:06;13.50;99.90
20698;DHT22;10508;50.956;4.640;2023-03-13T06:33:32;13.50;99.90
20698;DHT22;10508;50.956;4.640;2023-03-13T06:36:00;13.50;99.90
20698;DHT22;10508;50.956;4.640;2023-03-13T06:38:26;13.50;99.90
20698;DHT22;10508;50.956;4.640;2023-03-13T06:40:52;13.50;99.90
20698;DHT22;10508;50.956;4.640;2023-03-13T06:43:19;13.50;99.90
20698;DHT22;10508;50.956;4.640;2023-03-13T06:45:45;13.50;99.90
20698;DHT22;10508;50.956;4.640;2023-03-13T06:48:11;13.50;99.90
20698;DHT22;10508;50.956;4.640;2023-03-13T06:50:40;13.60;99.90
20698;DHT22;10508;50.956;4.640;2023-03-13T06:53:06;13.50;99.90
20698;DHT22;10508;50.956;4.640;2023-03-13T06:55:32;13.60;99.90
20698;DHT22;10508;50.956;4.640;2023-03-13T06:57:58;13.60;99.90
20698;DHT22;10508;50.956;4.640;2023-03-13T07:00:24;13.70;99.90
20698;DHT22;10508;50.956;4.640;2023-03-13T07:02:50;13.70;99.90
20698;DHT22;10508;50.956;4.640;2023-03-13T07:05:16;13.70;99.90
20698;DHT22;10508;50.956;4.640;2023-03-13T07:07:42;13.70;99.90
20698;DHT22;10508;50.956;4.640;2023-03-13T07:10:08;13.70;99.90
20698;DHT22;10508;50.956;4.640;2023-03-13T07:12:35;13.70;99.90
20698;DHT22;10508;50.956;4.640;2023-03-13T07:15:01;13.70;99.90
20698;DHT22;10508;50.956;4.640;2023-03-13T07:17:27;13.80;99.90
20698;DHT22;10508;50.956;4.640;2023-03-13T07:19:53;13.90;99.90
20698;DHT22;10508;50.956;4.640;2023-03-13T07:22:18;14.00;99.90
20698;DHT22;10508;50.956;4.640;2023-03-13T07:24:44;13.90;99.90
20698;DHT22;10508;50.956;4.640;2023-03-13T07:27:10;14.00;99.90
20698;DHT22;10508;50.956;4.640;2023-03-13T07:29:36;13.90;99.90
20698;DHT22;10508;50.956;4.640;2023-03-13T07:32:01;13.90;99.90
20698;DHT22;10508;50.956;4.640;2023-03-13T07:34:27;13.90;99.90
20698;DHT22;10508;50.956;4.640;2023-03-13T07:36:53;13.90;99.90
20698;DHT22;10508;50.956;4.640;2023-03-13T07:39:18;13.90;99.90
20698;DHT22;10508;50.956;4.640;2023-03-13T07:41:44;14.00;99.90
20698;DHT22;10508;50.956;4.640;2023-03-13T07:44:10;14.00;99.90
20698;DHT22;10508;50.956;4.640;2023-03-13T07:46:35;14.00;99.90
20698;DHT22;10508;50.956;4.640;2023-03-13T07:49:01;14.00;99.90
20698;DHT22;10508;50.956;4.640;2023-03-13T07:51:27;14.00;99.90
20698;DHT22;10508;50.956;4.640;2023-03-13T07:53:52;14.00;99.90
20698;DHT22;10508;50.956;4.640;2023-03-13T07:56:21;14.00;99.90
20698;DHT22;10508;50.956;4.640;2023-03-13T07:58:47;14.10;99.90
20698;DHT22;10508;50.956;4.640;2023-03-13T08:01:25;14.10;99.90
20698;DHT22;10508;50.956;4.640;2023-03-13T08:03:51;14.20;99.90
20698;DHT22;10508;50.956;4.640;2023-03-13T08:06:22;14.20;99.90
20698;DHT22;10508;50.956;4.640;2023-03-13T08:08:50;14.30;99.90
20698;DHT22;10508;50.956;4.640;2023-03-13T08:11:18;14.40;99.90
20698;DHT22;10508;50.956;4.640;2023-03-13T08:13:45;14.40;99.90
20698;DHT22;10508;50.956;4.640;2023-03-13T08:16:13;14.40;99.90
20698;DHT22;10508;50.956;4.640;2023-03-13T08:18:41;14.40;99.90
20698;DHT22;10508;50.956;4.640;2023-03-13T08:21:13;14.30;99.90
20698;DHT22;10508;50.956;4.640;2023-03-13T08:23:39;14.20;99.90
20698;DHT22;10508;50.956;4.640;2023-03-13T08:26:07;14.30;99.90
20698;DHT22;10508;50.956;4.640;2023-03-13T08:28:34;14.30;99.90
20698;DHT22;10508;50.956;4.640;2023-03-13T08:31:15;14.40;99.90
20698;DHT22;10508;50.956;4.640;2023-03-13T08:33:42;14.50;99.90
20698;DHT22;10508;50.956;4.640;2023-03-13T08:36:11;14.60;99.90
20698;DHT22;10508;50.956;4.640;2023-03-13T08:38:37;14.60;99.90
20698;DHT22;10508;50.956;4.640;2023-03-13T08:41:03;14.60;99.90
20698;DHT22;10508;50.956;4.640;2023-03-13T08:43:29;14.60;99.90
20698;DHT22;10508;50.956;4.640;2023-03-13T08:45:55;14.50;99.90
20698;DHT22;10508;50.956;4.640;2023-03-13T08:48:21;14.60;99.90
20698;DHT22;10508;50.956;4.640;2023-03-13T08:50:47;14.60;99.90
20698;DHT22;10508;50.956;4.640;2023-03-13T08:53:12;14.60;99.90
20698;DHT22;10508;50.956;4.640;2023-03-13T08:55:38;14.70;99.90
20698;DHT22;10508;50.956;4.640;2023-03-13T08:58:04;14.80;99.90
20698;DHT22;10508;50.956;4.640;2023-03-13T09:00:29;15.10;99.90
20698;DHT22;10508;50.956;4.640;2023-03-13T09:02:58;15.40;99.90
20698;DHT22;10508;50.956;4.640;2023-03-13T09:05:23;15.70;99.90
20698;DHT22;10508;50.956;4.640;2023-03-13T09:07:49;15.60;99.90
20698;DHT22;10508;50.956;4.640;2023-03-13T09:10:15;15.50;99.90
20698;DHT22;10508;50.956;4.640;2023-03-13T09:12:41;15.30;99.90
20698;DHT22;10508;50.956;4.640;2023-03-13T09:15:07;15.30;99.90
20698;DHT22;10508;50.956;4.640;2023-03-13T09:17:33;15.40;99.90
20698;DHT22;10508;50.956;4.640;2023-03-13T09:19:59;15.30;99.90
20698;DHT22;10508;50.956;4.640;2023-03-13T09:22:24;15.50;99.90
20698;DHT22;10508;50.956;4.640;2023-03-13T09:24:50;15.50;99.90
20698;DHT22;10508;50.956;4.640;2023-03-13T09:27:15;15.50;99.90
20698;DHT22;10508;50.956;4.640;2023-03-13T09:29:41;15.60;99.90
20698;DHT22;10508;50.956;4.640;2023-03-13T09:32:08;15.90;99.90
20698;DHT22;10508;50.956;4.640;2023-03-13T09:34:34;16.20;99.90
20698;DHT22;10508;50.956;4.640;2023-03-13T09:37:00;16.30;99.90
20698;DHT22;10508;50.956;4.640;2023-03-13T09:39:25;16.70;99.90
20698;DHT22;10508;50.956;4.640;2023-03-13T09:44:26;17.10;99.90
20698;DHT22;10508;50.956;4.640;2023-03-13T09:49:29;16.70;99.90
20698;DHT22;10508;50.956;4.640;2023-03-13T09:52:17;16.60;99.90
20698;DHT22;10508;50.956;4.640;2023-03-13T09:54:58;16.30;99.90
20698;DHT22;10508;50.956;4.640;2023-03-13T09:57:36;16.30;99.90
20698;DHT22;10508;50.956;4.640;2023-03-13T10:00:17;16.20;99.90
20698;DHT22;10508;50.956;4.640;2023-03-13T10:02:56;16.40;99.90
20698;DHT22;10508;50.956;4.640;2023-03-13T10:05:25;16.60;99.90
20698;DHT22;10508;50.956;4.640;2023-03-13T10:08:09;16.90;99.90
20698;DHT22;10508;50.956;4.640;2023-03-13T10:16:14;16.90;99.90
20698;DHT22;10508;50.956;4.640;2023-03-13T10:18:51;16.80;99.90
20698;DHT22;10508;50.956;4.640;2023-03-13T10:26:21;16.60;99.90
20698;DHT22;10508;50.956;4.640;2023-03-13T10:28:50;16.50;99.90
20698;DHT22;10508;50.956;4.640;2023-03-13T10:31:32;16.80;99.90
20698;DHT22;10508;50.956;4.640;2023-03-13T10:34:06;17.70;99.90
20698;DHT22;10508;50.956;4.640;2023-03-13T10:36:46;17.90;99.90
20698;DHT22;10508;50.956;4.640;2023-03-13T10:39:18;18.90;99.90
20698;DHT22;10508;50.956;4.640;2023-03-13T10:41:45;18.60;99.90
20698;DHT22;10508;50.956;4.640;2023-03-13T10:44:17;18.40;99.90
20698;DHT22;10508;50.956;4.640;2023-03-13T10:46:46;17.90;99.90
20698;DHT22;10508;50.956;4.640;2023-03-13T10:49:18;17.80;99.90
20698;DHT22;10508;50.956;4.640;2023-03-13T10:51:48;17.70;99.90
20698;DHT22;10508;50.956;4.640;2023-03-13T10:54:26;17.70;99.90
20698;DHT22;10508;50.956;4.640;2023-03-13T10:57:29;17.70;99.90
20698;DHT22;10508;50.956;4.640;2023-03-13T10:59:56;17.40;99.90
20698;DHT22;10508;50.956;4.640;2023-03-13T11:02:31;17.40;99.90
20698;DHT22;10508;50.956;4.640;2023-03-13T11:04:57;18.40;99.90
20698;DHT22;10508;50.956;4.640;2023-03-13T11:07:36;19.00;99.90
20698;DHT22;10508;50.956;4.640;2023-03-13T11:12:54;19.00;99.90
20698;DHT22;10508;50.956;4.640;2023-03-13T11:15:46;19.00;99.90
20698;DHT22;10508;50.956;4.640;2023-03-13T11:18:31;19.90;99.90
20698;DHT22;10508;50.956;4.640;2023-03-13T11:21:03;20.40;98.50
20698;DHT22;10508;50.956;4.640;2023-03-13T11:23:33;21.50;96.60
20698;DHT22;10508;50.956;4.640;2023-03-13T11:26:19;21.60;96.60
20698;DHT22;10508;50.956;4.640;2023-03-13T11:31:47;23.40;92.70
20698;DHT22;10508;50.956;4.640;2023-03-13T11:37:23;22.40;92.50
20698;DHT22;10508;50.956;4.640;2023-03-13T11:51:01;21.10;95.70
20698;DHT22;10508;50.956;4.640;2023-03-13T12:01:39;19.90;95.20
20698;DHT22;10508;50.956;4.640;2023-03-13T12:04:27;19.40;96.40
20698;DHT22;10508;50.956;4.640;2023-03-13T12:09:46;18.70;97.40
20698;DHT22;10508;50.956;4.640;2023-03-13T12:15:27;19.10;98.20
20698;DHT22;10508;50.956;4.640;2023-03-13T12:23:52;19.20;96.60
20698;DHT22;10508;50.956;4.640;2023-03-13T12:32:03;19.20;96.20
20698;DHT22;10508;50.956;4.640;2023-03-13T12:37:15;19.10;97.60
20698;DHT22;10508;50.956;4.640;2023-03-13T12:40:31;19.50;97.20
20698;DHT22;10508;50.956;4.640;2023-03-13T12:45:19;19.60;97.30
20698;DHT22;10508;50.956;4.640;2023-03-13T13:01:32;19.40;96.70
20698;DHT22;10508;50.956;4.640;2023-03-13T13:04:06;19.40;96.10
20698;DHT22;10508;50.956;4.640;2023-03-13T13:09:25;20.10;95.40
20698;DHT22;10508;50.956;4.640;2023-03-13T13:11:52;20.20;95.60
20698;DHT22;10508;50.956;4.640;2023-03-13T13:16:49;20.00;94.80
20698;DHT22;10508;50.956;4.640;2023-03-13T13:24:52;19.20;96.10
20698;DHT22;10508;50.956;4.640;2023-03-13T13:29:58;19.20;96.30
20698;DHT22;10508;50.956;4.640;2023-03-13T13:32:39;19.00;96.20
20698;DHT22;10508;50.956;4.640;2023-03-13T13:37:38;18.90;96.70
20698;DHT22;10508;50.956;4.640;2023-03-13T13:40:25;19.00;97.20
20698;DHT22;10508;50.956;4.640;2023-03-13T13:45:53;18.80;96.30
20698;DHT22;10508;50.956;4.640;2023-03-13T13:48:39;18.80;96.20
20698;DHT22;10508;50.956;4.640;2023-03-13T13:53:51;18.60;96.00
20698;DHT22;10508;50.956;4.640;2023-03-13T14:01:28;18.70;95.90
20698;DHT22;10508;50.956;4.640;2023-03-13T14:04:10;18.90;95.40
20698;DHT22;10508;50.956;4.640;2023-03-13T14:06:37;19.00;94.10
20698;DHT22;10508;50.956;4.640;2023-03-13T14:12:00;18.70;95.10
20698;DHT22;10508;50.956;4.640;2023-03-13T14:14:26;18.60;95.10
20698;DHT22;10508;50.956;4.640;2023-03-13T14:16:53;18.60;94.70
20698;DHT22;10508;50.956;4.640;2023-03-13T14:19:29;18.70;95.20
20698;DHT22;10508;50.956;4.640;2023-03-13T14:22:03;18.50;94.40
20698;DHT22;10508;50.956;4.640;2023-03-13T14:24:29;18.50;95.10
20698;DHT22;10508;50.956;4.640;2023-03-13T14:26:55;18.50;94.20
20698;DHT22;10508;50.956;4.640;2023-03-13T14:29:21;18.40;94.60
20698;DHT22;10508;50.956;4.640;2023-03-13T14:31:55;18.40;94.50
20698;DHT22;10508;50.956;4.640;2023-03-13T14:34:21;18.40;94.90
20698;DHT22;10508;50.956;4.640;2023-03-13T14:36:52;18.40;93.80
20698;DHT22;10508;50.956;4.640;2023-03-13T14:39:20;18.50;94.40
20698;DHT22;10508;50.956;4.640;2023-03-13T14:42:05;18.50;93.90
20698;DHT22;10508;50.956;4.640;2023-03-13T14:44:32;18.30;94.90
20698;DHT22;10508;50.956;4.640;2023-03-13T14:47:03;18.30;94.90
20698;DHT22;10508;50.956;4.640;2023-03-13T14:49:29;18.20;94.40
20698;DHT22;10508;50.956;4.640;2023-03-13T14:52:00;18.30;94.60
20698;DHT22;10508;50.956;4.640;2023-03-13T14:54:32;18.20;95.00
20698;DHT22;10508;50.956;4.640;2023-03-13T14:59:34;18.00;95.00
20698;DHT22;10508;50.956;4.640;2023-03-13T15:02:12;18.00;95.20
20698;DHT22;10508;50.956;4.640;2023-03-13T15:05:00;17.90;94.80
20698;DHT22;10508;50.956;4.640;2023-03-13T15:07:38;17.90;95.60
20698;DHT22;10508;50.956;4.640;2023-03-13T15:10:31;18.00;95.10
20698;DHT22;10508;50.956;4.640;2023-03-13T15:12:58;18.00;94.50
20698;DHT22;10508;50.956;4.640;2023-03-13T15:15:24;18.00;93.90
20698;DHT22;10508;50.956;4.640;2023-03-13T15:17:50;17.90;93.80
20698;DHT22;10508;50.956;4.640;2023-03-13T15:20:16;17.90;94.10
20698;DHT22;10508;50.956;4.640;2023-03-13T15:22:44;18.00;94.30
20698;DHT22;10508;50.956;4.640;2023-03-13T15:25:19;18.00;95.10
20698;DHT22;10508;50.956;4.640;2023-03-13T15:27:46;18.10;94.80
20698;DHT22;10508;50.956;4.640;2023-03-13T15:30:19;18.30;94.80
20698;DHT22;10508;50.956;4.640;2023-03-13T15:32:45;18.40;94.60
20698;DHT22;10508;50.956;4.640;2023-03-13T15:37:47;18.30;92.80
20698;DHT22;10508;50.956;4.640;2023-03-13T15:40:14;18.10;93.30
20698;DHT22;10508;50.956;4.640;2023-03-13T15:42:40;18.10;93.10
20698;DHT22;10508;50.956;4.640;2023-03-13T15:45:06;18.10;93.00
20698;DHT22;10508;50.956;4.640;2023-03-13T15:47:32;18.10;93.80
20698;DHT22;10508;50.956;4.640;2023-03-13T15:49:58;18.10;94.50
20698;DHT22;10508;50.956;4.640;2023-03-13T15:52:23;18.00;94.10
20698;DHT22;10508;50.956;4.640;2023-03-13T15:54:50;17.90;94.40
20698;DHT22;10508;50.956;4.640;2023-03-13T15:57:20;17.90;94.20
20698;DHT22;10508;50.956;4.640;2023-03-13T15:59:48;17.80;94.10
20698;DHT22;10508;50.956;4.640;2023-03-13T16:02:19;17.80;94.00
20698;DHT22;10508;50.956;4.640;2023-03-13T16:04:45;17.80;94.00
20698;DHT22;10508;50.956;4.640;2023-03-13T16:07:12;17.90;94.50
20698;DHT22;10508;50.956;4.640;2023-03-13T16:09:39;17.80;94.60
20698;DHT22;10508;50.956;4.640;2023-03-13T16:12:05;17.80;94.20
20698;DHT22;10508;50.956;4.640;2023-03-13T16:14:30;17.80;94.80
20698;DHT22;10508;50.956;4.640;2023-03-13T16:16:56;17.70;93.50
20698;DHT22;10508;50.956;4.640;2023-03-13T16:19:22;17.50;93.80
20698;DHT22;10508;50.956;4.640;2023-03-13T16:21:47;17.40;94.30
20698;DHT22;10508;50.956;4.640;2023-03-13T16:24:14;17.40;94.00
20698;DHT22;10508;50.956;4.640;2023-03-13T16:26:42;17.30;94.10
20698;DHT22;10508;50.956;4.640;2023-03-13T16:29:11;17.20;94.70
20698;DHT22;10508;50.956;4.640;2023-03-13T16:31:36;17.10;94.80
20698;DHT22;10508;50.956;4.640;2023-03-13T16:34:02;17.10;94.90
20698;DHT22;10508;50.956;4.640;2023-03-13T16:36:30;17.10;95.30
20698;DHT22;10508;50.956;4.640;2023-03-13T16:39:00;17.00;94.90
20698;DHT22;10508;50.956;4.640;2023-03-13T16:41:27;17.00;95.00
20698;DHT22;10508;50.956;4.640;2023-03-13T16:43:54;16.90;95.00
20698;DHT22;10508;50.956;4.640;2023-03-13T16:46:26;16.90;95.30
20698;DHT22;10508;50.956;4.640;2023-03-13T16:48:52;16.90;95.40
20698;DHT22;10508;50.956;4.640;2023-03-13T16:51:23;16.80;96.10
20698;DHT22;10508;50.956;4.640;2023-03-13T16:53:51;16.70;95.90
20698;DHT22;10508;50.956;4.640;2023-03-13T16:58:53;16.70;95.90
20698;DHT22;10508;50.956;4.640;2023-03-13T17:01:20;16.60;96.00
20698;DHT22;10508;50.956;4.640;2023-03-13T17:03:45;16.60;96.60
20698;DHT22;10508;50.956;4.640;2023-03-13T17:06:22;16.60;96.20
20698;DHT22;10508;50.956;4.640;2023-03-13T17:08:48;16.50;95.80
20698;DHT22;10508;50.956;4.640;2023-03-13T17:11:16;16.40;96.10
20698;DHT22;10508;50.956;4.640;2023-03-13T17:13:45;16.40;96.50
20698;DHT22;10508;50.956;4.640;2023-03-13T17:16:21;16.40;96.50
20698;DHT22;10508;50.956;4.640;2023-03-13T17:18:49;17.30;96.50
20698;DHT22;10508;50.956;4.640;2023-03-13T17:21:18;16.30;96.10
20698;DHT22;10508;50.956;4.640;2023-03-13T17:23:45;16.30;96.40
20698;DHT22;10508;50.956;4.640;2023-03-13T17:28:42;16.30;96.40
20698;DHT22;10508;50.956;4.640;2023-03-13T17:31:09;16.20;96.60
20698;DHT22;10508;50.956;4.640;2023-03-13T17:33:35;16.20;96.40
20698;DHT22;10508;50.956;4.640;2023-03-13T17:36:01;16.10;96.80
20698;DHT22;10508;50.956;4.640;2023-03-13T17:38:30;16.10;96.60
20698;DHT22;10508;50.956;4.640;2023-03-13T17:40:56;16.00;96.30
20698;DHT22;10508;50.956;4.640;2023-03-13T17:43:21;15.90;97.10
20698;DHT22;10508;50.956;4.640;2023-03-13T17:45:47;15.90;96.40
20698;DHT22;10508;50.956;4.640;2023-03-13T17:48:12;15.90;96.60
20698;DHT22;10508;50.956;4.640;2023-03-13T17:50:38;15.90;96.90